Time;durP1;ratioP1;P1;durP2;ratioP2;P2;SDS_P1;SDS_P2;PMS_P1;PMS_P2;Temp;Humidity;BMP_temperature;BMP_pressure;BME280_temperature;BME280_humidity;BME280_pressure;Samples;Min_cycle;Max_cycle;Signal;HPM_P1;HPM_P2
2024/01/03 00:00:35;;;;;;;6.82;1.30;;;7.70;99.90;;;;;;5081565;28;20047;-64
2024/01/03 00:03:01;;;;;;;7.45;1.08;;;7.70;99.90;;;;;;5076821;28;20036;-64
2024/01/03 00:05:47;;;;;;;7.00;1.42;;;7.70;99.90;;;;;;5077404;28;20048;-65
2024/01/03 00:08:24;;;;;;;5.17;1.30;;;7.70;99.90;;;;;;5080565;28;20033;-63
2024/01/03 00:10:52;;;;;;;10.75;2.55;;;7.70;99.90;;;;;;5117251;27;20051;-63
2024/01/03 00:13:33;;;;;;;7.90;1.52;;;7.70;99.90;;;;;;5087036;28;20040;-64
2024/01/03 00:16:04;;;;;;;12.15;1.30;;;7.70;99.90;;;;;;5080992;28;20416;-64
2024/01/03 00:18:36;;;;;;;8.10;1.42;;;7.70;99.90;;;;;;5066753;28;20047;-64
2024/01/03 00:21:05;;;;;;;12.65;3.13;;;7.70;99.90;;;;;;5064799;28;20048;-64
2024/01/03 00:23:38;;;;;;;7.65;1.83;;;7.70;99.90;;;;;;5064891;28;20044;-65
2024/01/03 00:26:06;;;;;;;10.23;1.30;;;7.80;99.90;;;;;;5064419;28;20508;-64
2024/01/03 00:28:32;;;;;;;6.63;1.30;;;7.70;99.90;;;;;;5063363;28;20105;-64
2024/01/03 00:30:58;;;;;;;14.38;2.28;;;7.70;99.90;;;;;;5067717;28;20040;-64
2024/01/03 00:33:25;;;;;;;12.48;1.90;;;7.70;99.90;;;;;;5065327;28;20064;-63
2024/01/03 00:35:51;;;;;;;9.00;1.60;;;7.70;99.90;;;;;;5067441;28;20044;-64
2024/01/03 00:38:17;;;;;;;6.50;1.23;;;7.70;99.90;;;;;;5063431;28;20389;-65
2024/01/03 00:40:53;;;;;;;13.57;1.70;;;7.70;99.90;;;;;;5063591;22;20047;-65
2024/01/03 00:43:19;;;;;;;11.27;1.80;;;7.70;99.90;;;;;;5036294;28;20527;-65
2024/01/03 00:45:47;;;;;;;16.00;2.38;;;7.70;99.90;;;;;;5043318;28;20052;-64
2024/01/03 00:48:18;;;;;;;9.60;1.73;;;7.70;99.90;;;;;;5033632;28;20567;-65
2024/01/03 00:50:43;;;;;;;12.93;1.42;;;7.70;99.90;;;;;;5043882;28;20049;-64
2024/01/03 00:53:12;;;;;;;7.32;1.35;;;7.70;99.90;;;;;;5034762;28;20426;-64
2024/01/03 00:55:39;;;;;;;9.40;2.17;;;7.60;99.90;;;;;;5037769;28;20420;-63
2024/01/03 00:58:05;;;;;;;12.43;2.00;;;7.60;99.90;;;;;;5032827;28;20130;-63
2024/01/03 01:00:31;;;;;;;10.60;2.25;;;7.60;99.90;;;;;;5035769;28;20701;-62
2024/01/03 01:02:56;;;;;;;14.20;1.98;;;7.60;99.90;;;;;;5043807;28;20037;-64
2024/01/03 01:05:23;;;;;;;11.32;2.35;;;7.50;99.90;;;;;;5033267;28;20045;-64
2024/01/03 01:07:48;;;;;;;9.32;1.73;;;7.60;99.90;;;;;;5032955;28;20052;-63
2024/01/03 01:10:14;;;;;;;7.55;2.13;;;7.60;99.90;;;;;;5027265;28;20670;-64
2024/01/03 01:12:39;;;;;;;8.80;1.55;;;7.60;99.90;;;;;;5034290;28;20042;-65
2024/01/03 01:15:05;;;;;;;12.82;1.80;;;7.50;99.90;;;;;;5032147;28;20049;-64
2024/01/03 01:17:31;;;;;;;9.02;1.55;;;7.50;99.90;;;;;;5042117;28;20075;-66
2024/01/03 01:19:56;;;;;;;16.60;2.20;;;7.40;99.90;;;;;;5022539;28;20614;-64
2024/01/03 01:22:23;;;;;;;15.73;2.15;;;7.40;99.90;;;;;;5038031;28;20397;-63
2024/01/03 01:24:49;;;;;;;13.05;1.42;;;7.40;99.90;;;;;;5029047;28;20734;-63
2024/01/03 01:27:14;;;;;;;9.32;1.67;;;7.40;99.90;;;;;;5042519;28;20124;-64
2024/01/03 01:29:40;;;;;;;14.18;1.30;;;7.50;99.90;;;;;;5036596;28;20510;-63
2024/01/03 01:32:06;;;;;;;7.72;1.90;;;7.40;99.90;;;;;;5029049;28;20493;-64
2024/01/03 01:34:31;;;;;;;;;;;7.50;99.90;;;;;;5036079;28;20068;-64
2024/01/03 01:36:57;;;;;;;9.00;1.70;;;7.60;99.90;;;;;;5036087;28;20403;-64
2024/01/03 01:39:22;;;;;;;14.38;2.05;;;7.60;99.90;;;;;;5043146;28;20045;-64
2024/01/03 01:41:48;;;;;;;;;;;7.60;99.90;;;;;;5040208;28;20497;-64
2024/01/03 01:44:13;;;;;;;13.13;1.65;;;7.50;99.90;;;;;;5039193;28;19921;-63
2024/01/03 01:46:40;;;;;;;10.18;1.92;;;7.50;99.90;;;;;;5035818;28;20055;-63
2024/01/03 01:49:07;;;;;;;8.38;1.52;;;7.60;99.90;;;;;;5039389;28;20051;-64
2024/01/03 01:51:35;;;;;;;11.90;2.22;;;7.60;99.90;;;;;;5036529;28;20091;-63
2024/01/03 01:54:01;;;;;;;19.05;3.08;;;7.60;99.90;;;;;;5036279;28;20043;-64
2024/01/03 01:56:28;;;;;;;12.57;1.60;;;7.60;99.90;;;;;;5040498;28;20049;-64
2024/01/03 01:58:53;;;;;;;10.85;2.05;;;7.60;99.90;;;;;;5039936;28;20043;-63
2024/01/03 02:01:20;;;;;;;12.55;2.17;;;7.60;99.90;;;;;;5036420;28;20029;-64
2024/01/03 02:03:48;;;;;;;11.45;1.65;;;7.60;99.90;;;;;;5037532;28;20582;-64
2024/01/03 02:06:15;;;;;;;10.82;1.67;;;7.50;99.90;;;;;;5037288;28;20037;-63
2024/01/03 02:08:42;;;;;;;13.20;1.55;;;7.40;99.90;;;;;;5033354;28;20037;-64
2024/01/03 02:11:07;;;;;;;13.68;2.53;;;7.40;99.90;;;;;;5032376;28;20165;-63
2024/01/03 02:13:33;;;;;;;13.27;2.10;;;7.30;99.90;;;;;;5030562;28;20574;-64
2024/01/03 02:15:59;;;;;;;7.82;1.33;;;7.30;99.90;;;;;;5035544;28;20037;-63
2024/01/03 02:18:26;;;;;;;7.72;1.65;;;7.30;99.90;;;;;;5016059;28;20044;-64
2024/01/03 02:20:54;;;;;;;15.45;1.45;;;7.40;99.90;;;;;;5036407;28;20072;-63
2024/01/03 02:23:20;;;;;;;14.77;2.08;;;7.40;99.90;;;;;;5034696;28;20041;-63
2024/01/03 02:25:45;;;;;;;10.05;1.50;;;7.40;99.90;;;;;;5046097;28;20132;-64
2024/01/03 02:28:11;;;;;;;9.95;1.60;;;7.40;99.90;;;;;;5039395;28;20081;-63
2024/01/03 02:30:37;;;;;;;;;;;7.30;99.90;;;;;;5040024;28;20425;-64
2024/01/03 02:33:03;;;;;;;5.85;1.20;;;7.30;99.90;;;;;;5032000;28;19992;-64
2024/01/03 02:35:28;;;;;;;11.43;2.30;;;7.40;99.90;;;;;;5040266;28;20138;-63
2024/01/03 02:37:54;;;;;;;9.10;1.25;;;7.40;99.90;;;;;;5040483;28;20098;-64
2024/01/03 02:40:19;;;;;;;;;;;7.40;99.90;;;;;;5038882;28;20040;-64
2024/01/03 02:42:45;;;;;;;7.95;1.08;;;7.40;99.90;;;;;;5034785;28;20388;-63
2024/01/03 02:45:10;;;;;;;;;;;7.40;99.90;;;;;;5040517;28;20108;-63
2024/01/03 02:47:36;;;;;;;6.93;1.30;;;7.40;99.90;;;;;;5040107;28;19921;-64
2024/01/03 02:50:02;;;;;;;;;;;7.50;99.90;;;;;;5036155;28;20045;-63
2024/01/03 02:52:28;;;;;;;10.73;1.50;;;7.50;99.90;;;;;;5021736;28;19995;-62
2024/01/03 02:54:53;;;;;;;8.20;1.13;;;7.50;99.90;;;;;;5040264;28;20052;-62
2024/01/03 02:57:19;;;;;;;10.10;1.40;;;7.50;99.90;;;;;;5038691;28;20585;-63
2024/01/03 02:59:45;;;;;;;14.40;1.70;;;7.40;99.90;;;;;;5037426;28;20045;-63
2024/01/03 03:02:11;;;;;;;14.20;2.50;;;7.40;99.90;;;;;;5031010;28;20048;-63
2024/01/03 03:04:36;;;;;;;7.90;1.40;;;7.30;99.90;;;;;;5037283;28;20045;-63
2024/01/03 03:07:02;;;;;;;11.68;1.80;;;7.30;99.90;;;;;;5029323;28;20038;-64
2024/01/03 03:09:27;;;;;;;;;;;7.30;99.90;;;;;;5036538;28;20042;-63
2024/01/03 03:11:53;;;;;;;4.30;0.77;;;7.30;99.90;;;;;;5039268;28;19916;-63
2024/01/03 03:14:18;;;;;;;13.15;1.73;;;7.30;99.90;;;;;;5027780;28;20037;-63
2024/01/03 03:16:44;;;;;;;8.25;1.35;;;7.30;99.90;;;;;;5038228;28;20421;-63
2024/01/03 03:19:11;;;;;;;9.35;1.67;;;7.20;99.90;;;;;;5034484;28;20111;-62
2024/01/03 03:21:36;;;;;;;9.27;0.98;;;7.20;99.90;;;;;;5037129;28;20037;-64
2024/01/03 03:24:02;;;;;;;5.53;0.70;;;7.20;99.90;;;;;;5031604;28;20071;-64
2024/01/03 03:26:28;;;;;;;6.00;1.45;;;7.10;99.90;;;;;;5040990;28;20049;-69
2024/01/03 03:28:54;;;;;;;7.30;1.30;;;7.10;99.90;;;;;;5030011;28;20115;-63
2024/01/03 03:31:19;;;;;;;7.03;1.20;;;7.10;99.90;;;;;;5036825;28;20038;-64
2024/01/03 03:33:45;;;;;;;;;;;7.10;99.90;;;;;;5033591;28;20068;-63
2024/01/03 03:36:14;;;;;;;7.35;1.20;;;7.10;99.90;;;;;;5044098;28;20020;-63
2024/01/03 03:38:40;;;;;;;6.88;1.45;;;7.10;99.90;;;;;;5038508;28;20047;-63
2024/01/03 03:41:10;;;;;;;8.10;1.25;;;7.10;99.90;;;;;;5036743;28;20707;-63
2024/01/03 03:43:37;;;;;;;5.90;1.38;;;7.10;99.90;;;;;;5034004;28;20067;-64
2024/01/03 03:46:03;;;;;;;9.45;1.05;;;7.10;99.90;;;;;;5041658;28;20060;-64
2024/01/03 03:48:28;;;;;;;3.83;0.88;;;7.10;99.90;;;;;;5031049;28;20032;-64
2024/01/03 03:50:55;;;;;;;7.35;1.02;;;7.20;99.90;;;;;;5041997;28;20041;-65
2024/01/03 03:53:20;;;;;;;9.88;1.17;;;7.20;99.90;;;;;;5035711;28;20033;-65
2024/01/03 03:55:46;;;;;;;5.82;0.90;;;7.30;99.90;;;;;;5031383;28;20045;-65
2024/01/03 03:58:12;;;;;;;;;;;7.30;99.90;;;;;;5038836;28;20523;-64
2024/01/03 04:00:37;;;;;;;5.75;0.93;;;7.20;99.90;;;;;;5044023;28;19966;-64
2024/01/03 04:03:07;;;;;;;7.68;1.02;;;7.20;99.90;;;;;;5030444;28;20119;-65
2024/01/03 04:05:34;;;;;;;10.10;1.20;;;7.20;99.90;;;;;;5044131;28;20045;-63
2024/01/03 04:08:01;;;;;;;7.18;1.30;;;7.20;99.90;;;;;;5036636;28;20064;-62
2024/01/03 04:10:26;;;;;;;5.25;1.10;;;7.10;99.90;;;;;;5042168;28;20043;-63
2024/01/03 04:12:52;;;;;;;9.32;1.17;;;7.10;99.90;;;;;;5032403;28;20037;-64
2024/01/03 04:15:20;;;;;;;6.25;1.50;;;7.10;99.90;;;;;;5035645;28;20038;-64
2024/01/03 04:17:45;;;;;;;5.82;1.10;;;7.10;99.90;;;;;;5022509;28;20040;-64
2024/01/03 04:20:11;;;;;;;7.95;1.30;;;7.00;99.90;;;;;;5033095;28;20044;-64
2024/01/03 04:22:38;;;;;;;7.70;0.90;;;7.00;99.90;;;;;;5040595;28;20497;-63
2024/01/03 04:25:04;;;;;;;5.63;0.73;;;6.90;99.90;;;;;;5037986;28;20055;-64
2024/01/03 04:27:29;;;;;;;8.95;1.08;;;6.90;99.90;;;;;;5043893;28;20612;-63
2024/01/03 04:29:55;;;;;;;5.00;0.93;;;6.90;99.90;;;;;;5034486;28;20047;-63
2024/01/03 04:32:20;;;;;;;7.72;1.00;;;6.90;99.90;;;;;;5042226;28;20048;-64
2024/01/03 04:34:45;;;;;;;;;;;6.90;99.90;;;;;;5037296;28;20575;-63
2024/01/03 04:37:12;;;;;;;5.60;0.80;;;6.90;99.90;;;;;;5046227;28;19939;-64
2024/01/03 04:39:37;;;;;;;4.55;1.25;;;6.90;99.90;;;;;;5021250;28;20485;-63
2024/01/03 04:42:04;;;;;;;11.02;1.10;;;6.90;99.90;;;;;;5046023;28;20051;-64
2024/01/03 04:44:30;;;;;;;10.68;1.65;;;6.90;99.90;;;;;;5034673;28;20049;-64
2024/01/03 04:46:56;;;;;;;6.93;1.08;;;6.90;99.90;;;;;;5042003;28;20052;-62
2024/01/03 04:49:21;;;;;;;6.95;1.23;;;6.90;99.90;;;;;;5040341;28;20045;-63
2024/01/03 04:51:47;;;;;;;8.88;1.38;;;6.90;99.90;;;;;;5046793;28;20034;-63
2024/01/03 04:54:12;;;;;;;10.90;1.25;;;6.90;99.90;;;;;;5038136;28;20512;-63
2024/01/03 04:56:38;;;;;;;7.03;1.08;;;7.00;99.90;;;;;;5047112;28;20033;-63
2024/01/03 04:59:03;;;;;;;;;;;7.00;99.90;;;;;;5038985;28;20037;-62
2024/01/03 05:01:29;;;;;;;9.23;1.50;;;7.00;99.90;;;;;;5045288;28;19920;-62
2024/01/03 05:03:55;;;;;;;13.50;1.27;;;7.00;99.90;;;;;;5032856;28;20123;-63
2024/01/03 05:06:21;;;;;;;13.95;1.73;;;6.90;99.90;;;;;;5044101;28;20076;-63
2024/01/03 05:08:46;;;;;;;12.55;1.48;;;6.90;99.90;;;;;;5035468;28;20072;-64
2024/01/03 05:11:13;;;;;;;8.90;1.38;;;6.90;99.90;;;;;;5032111;28;20068;-63
2024/01/03 05:13:38;;;;;;;8.25;1.33;;;6.90;99.90;;;;;;5032362;28;20052;-63
2024/01/03 05:16:04;;;;;;;8.82;1.20;;;6.90;99.90;;;;;;5044689;28;20045;-64
2024/01/03 05:18:30;;;;;;;;;;;6.90;99.90;;;;;;5030568;28;20046;-64
2024/01/03 05:20:55;;;;;;;18.83;2.73;;;6.90;99.90;;;;;;5046287;28;19916;-64
2024/01/03 05:23:21;;;;;;;14.00;1.60;;;6.90;99.90;;;;;;5035706;28;20634;-62
2024/01/03 05:25:47;;;;;;;11.48;1.63;;;7.00;99.90;;;;;;5038163;28;20095;-63
2024/01/03 05:28:13;;;;;;;11.38;1.60;;;7.00;99.90;;;;;;5027257;28;20064;-63
2024/01/03 05:30:40;;;;;;;11.32;1.67;;;7.00;99.90;;;;;;5039192;28;21317;-64
2024/01/03 05:33:05;;;;;;;8.95;1.75;;;7.00;99.90;;;;;;5036695;28;20041;-63
2024/01/03 05:35:31;;;;;;;8.68;1.25;;;7.00;99.90;;;;;;5033295;28;20404;-64
2024/01/03 05:37:57;;;;;;;12.35;1.60;;;7.00;99.90;;;;;;5039744;28;20048;-63
2024/01/03 05:40:22;;;;;;;13.23;1.77;;;7.00;99.90;;;;;;5012651;28;20051;-64
2024/01/03 05:42:48;;;;;;;10.45;1.42;;;7.00;99.90;;;;;;5033711;28;20047;-63
2024/01/03 05:45:14;;;;;;;15.73;1.88;;;7.00;99.90;;;;;;5025713;28;20658;-64
2024/01/03 05:47:40;;;;;;;7.35;1.17;;;7.00;99.90;;;;;;5039900;28;20652;-64
2024/01/03 05:50:08;;;;;;;7.80;2.50;;;7.00;99.90;;;;;;5034171;28;20037;-63
2024/01/03 05:52:35;;;;;;;7.47;0.95;;;7.00;99.90;;;;;;5039578;28;20045;-63
2024/01/03 05:55:01;;;;;;;8.23;1.17;;;7.00;99.90;;;;;;5033947;28;20497;-63
2024/01/03 05:57:26;;;;;;;6.60;1.60;;;7.00;99.90;;;;;;5036924;28;20045;-64
2024/01/03 05:59:52;;;;;;;;;;;7.00;99.90;;;;;;5027691;28;20082;-63
2024/01/03 06:02:17;;;;;;;7.57;1.17;;;7.00;99.90;;;;;;5022046;28;19917;-62
2024/01/03 06:04:46;;;;;;;11.73;1.52;;;7.00;99.90;;;;;;5024444;28;20033;-63
2024/01/03 06:07:12;;;;;;;12.30;1.40;;;7.00;99.90;;;;;;5037544;28;20068;-63
2024/01/03 06:09:37;;;;;;;10.60;1.38;;;6.90;99.90;;;;;;5029800;28;20030;-63
2024/01/03 06:12:03;;;;;;;9.55;1.25;;;6.90;99.90;;;;;;5036309;28;20037;-62
2024/01/03 06:14:29;;;;;;;;;;;6.90;99.90;;;;;;5028010;28;20037;-63
2024/01/03 06:16:54;;;;;;;3.83;1.23;;;6.90;99.90;;;;;;5036416;28;19963;-64
2024/01/03 06:19:20;;;;;;;10.20;1.92;;;6.90;99.90;;;;;;5022097;28;20042;-63
2024/01/03 06:21:46;;;;;;;3.75;0.88;;;6.90;99.90;;;;;;5034234;28;20076;-63
2024/01/03 06:24:11;;;;;;;7.28;0.98;;;6.80;99.90;;;;;;5029276;28;20037;-62
2024/01/03 06:26:37;;;;;;;5.90;1.02;;;6.80;99.90;;;;;;5031355;28;20417;-65
2024/01/03 06:29:02;;;;;;;5.97;0.80;;;6.80;99.90;;;;;;5022283;28;20029;-63
2024/01/03 06:31:28;;;;;;;3.42;0.82;;;6.80;99.90;;;;;;5041440;28;20035;-63
2024/01/03 06:33:54;;;;;;;2.72;0.50;;;6.80;99.90;;;;;;5028619;28;20029;-63
2024/01/03 06:36:20;;;;;;;3.95;0.68;;;6.80;99.90;;;;;;5032630;28;20540;-64
2024/01/03 06:38:46;;;;;;;5.35;0.80;;;6.70;99.90;;;;;;5034963;28;20040;-64
2024/01/03 06:41:11;;;;;;;5.00;0.63;;;6.80;99.90;;;;;;5035566;28;20056;-63
2024/01/03 06:43:37;;;;;;;3.25;0.70;;;6.80;99.90;;;;;;5034778;28;20045;-63
2024/01/03 06:46:03;;;;;;;2.78;0.70;;;6.70;99.90;;;;;;5034531;28;20105;-64
2024/01/03 06:48:28;;;;;;;6.35;0.70;;;6.70;99.90;;;;;;5027692;28;20050;-64
2024/01/03 06:50:54;;;;;;;2.95;1.23;;;6.70;99.90;;;;;;5029931;28;20038;-63
2024/01/03 06:53:19;;;;;;;2.58;0.70;;;6.70;99.90;;;;;;5032948;28;20037;-62
2024/01/03 06:55:45;;;;;;;1.67;0.30;;;6.70;99.90;;;;;;5034915;28;20361;-62
2024/01/03 06:58:11;;;;;;;3.03;0.98;;;6.70;99.90;;;;;;5036604;28;20040;-62
2024/01/03 07:00:36;;;;;;;2.72;0.60;;;6.70;99.90;;;;;;5034811;28;20048;-64
2024/01/03 07:03:02;;;;;;;2.75;0.50;;;6.70;99.90;;;;;;5036167;28;20445;-63
2024/01/03 07:05:27;;;;;;;1.58;0.40;;;6.70;99.90;;;;;;5016597;28;20053;-64
2024/01/03 07:07:53;;;;;;;2.30;0.47;;;6.80;99.90;;;;;;5035439;28;20060;-63
2024/01/03 07:10:20;;;;;;;3.97;0.52;;;6.80;99.90;;;;;;5036888;28;20072;-64
2024/01/03 07:12:45;;;;;;;3.10;0.60;;;6.80;99.90;;;;;;5034853;28;20686;-63
2024/01/03 07:15:17;;;;;;;4.47;0.60;;;6.80;99.90;;;;;;5034281;28;20068;-63
2024/01/03 07:17:43;;;;;;;6.13;1.08;;;6.80;99.90;;;;;;5033999;28;20061;-63
2024/01/03 07:20:09;;;;;;;8.18;0.98;;;6.80;99.90;;;;;;5035023;28;20037;-62
2024/01/03 07:22:34;;;;;;;5.43;1.00;;;6.80;99.90;;;;;;5035479;28;20033;-64
2024/01/03 07:25:00;;;;;;;6.30;1.02;;;6.80;99.90;;;;;;5033330;28;20033;-64
2024/01/03 07:27:26;;;;;;;7.70;1.33;;;6.80;99.90;;;;;;5020328;28;20061;-64
2024/01/03 07:29:53;;;;;;;7.10;1.15;;;6.80;99.90;;;;;;5032028;28;20079;-64
2024/01/03 07:32:19;;;;;;;9.70;1.23;;;6.80;99.90;;;;;;5025641;28;20080;-63
2024/01/03 07:34:44;;;;;;;7.85;1.63;;;6.80;99.90;;;;;;5027568;28;20041;-64
2024/01/03 07:37:10;;;;;;;7.50;1.45;;;6.80;99.90;;;;;;5025669;28;20064;-63
2024/01/03 07:39:36;;;;;;;7.63;1.45;;;6.90;99.90;;;;;;5026719;28;20045;-63
2024/01/03 07:42:01;;;;;;;;;;;6.90;99.90;;;;;;5028631;28;20060;-64
2024/01/03 07:44:33;;;;;;;5.88;1.20;;;6.80;99.90;;;;;;5027231;28;19928;-64
2024/01/03 07:47:01;;;;;;;8.88;1.40;;;6.80;99.90;;;;;;5034775;28;20056;-63
2024/01/03 07:49:28;;;;;;;11.85;1.20;;;6.90;99.90;;;;;;5035474;28;20041;-62
2024/01/03 07:51:53;;;;;;;14.48;1.98;;;6.90;99.90;;;;;;5041805;28;20033;-64
2024/01/03 07:54:19;;;;;;;8.40;2.08;;;6.90;99.90;;;;;;5043603;28;20036;-65
2024/01/03 07:56:44;;;;;;;;;;;7.00;99.90;;;;;;5046915;28;20040;-65
2024/01/03 07:59:10;;;;;;;9.40;1.35;;;7.00;99.90;;;;;;5024275;28;20067;-63
2024/01/03 08:01:35;;;;;;;10.18;1.40;;;7.00;99.90;;;;;;5045688;28;20076;-64
2024/01/03 08:04:01;;;;;;;;;;;7.00;99.90;;;;;;5039062;28;20709;-64
2024/01/03 08:06:27;;;;;;;9.90;1.42;;;7.10;99.90;;;;;;5039333;28;19929;-63
2024/01/03 08:08:52;;;;;;;6.45;1.45;;;7.10;99.90;;;;;;5038975;28;20033;-64
2024/01/03 08:11:18;;;;;;;7.25;1.33;;;7.10;99.90;;;;;;5042223;28;20124;-63
2024/01/03 08:13:44;;;;;;;9.50;1.75;;;7.10;99.90;;;;;;5028906;28;20178;-64
2024/01/03 08:16:11;;;;;;;7.63;1.38;;;7.10;99.90;;;;;;5040212;28;20060;-63
2024/01/03 08:18:37;;;;;;;10.98;1.48;;;7.20;99.90;;;;;;5037412;28;20153;-65
2024/01/03 08:21:03;;;;;;;5.07;1.15;;;7.20;99.90;;;;;;5034913;28;20424;-63
2024/01/03 08:23:31;;;;;;;6.93;1.38;;;7.20;99.90;;;;;;5028069;28;20125;-63
2024/01/03 08:25:56;;;;;;;14.95;2.50;;;7.20;99.90;;;;;;5047880;28;20029;-63
2024/01/03 08:28:22;;;;;;;13.35;1.63;;;7.20;99.90;;;;;;5037113;28;20050;-63
2024/01/03 08:30:48;;;;;;;10.70;1.77;;;7.20;99.90;;;;;;5032572;28;20781;-65
2024/01/03 08:33:13;;;;;;;7.43;1.98;;;7.30;99.90;;;;;;5028184;28;20046;-67
2024/01/03 08:35:39;;;;;;;19.85;2.47;;;7.30;99.90;;;;;;5043151;28;20033;-65
2024/01/03 08:38:04;;;;;;;;;;;7.30;99.90;;;;;;5021486;28;20034;-64
2024/01/03 08:40:30;;;;;;;19.48;3.13;;;7.30;99.90;;;;;;5038337;28;20019;-64
2024/01/03 08:42:56;;;;;;;9.02;1.85;;;7.40;99.90;;;;;;5030085;28;20042;-64
2024/01/03 08:45:22;;;;;;;9.50;1.25;;;7.50;99.90;;;;;;5042523;28;20045;-64
2024/01/03 08:47:48;;;;;;;8.32;1.92;;;7.50;99.90;;;;;;5040140;28;20068;-63
2024/01/03 08:50:13;;;;;;;12.75;1.73;;;7.50;99.90;;;;;;5019515;28;20623;-63
2024/01/03 08:52:39;;;;;;;7.95;1.00;;;7.50;99.90;;;;;;5030361;28;20532;-65
2024/01/03 08:55:05;;;;;;;;;;;7.50;99.90;;;;;;5037872;28;20033;-64
2024/01/03 08:57:31;;;;;;;7.90;1.83;;;7.50;99.90;;;;;;5043064;28;20413;-64
2024/01/03 08:59:57;;;;;;;5.82;1.08;;;7.50;99.90;;;;;;5033320;28;20124;-65
2024/01/03 09:02:23;;;;;;;10.90;1.05;;;7.50;99.90;;;;;;5038963;28;20137;-68
2024/01/03 09:04:49;;;;;;;6.45;0.98;;;7.60;99.90;;;;;;5029909;28;20048;-65
2024/01/03 09:07:15;;;;;;;5.65;1.13;;;7.50;99.90;;;;;;5037200;28;20044;-63
2024/01/03 09:09:41;;;;;;;6.53;0.95;;;7.50;99.90;;;;;;5029293;28;20040;-64
2024/01/03 09:12:07;;;;;;;6.10;1.50;;;7.50;99.90;;;;;;5030230;28;20039;-64
2024/01/03 09:14:33;;;;;;;4.90;0.70;;;7.50;99.90;;;;;;5028710;28;20037;-65
2024/01/03 09:16:58;;;;;;;5.72;1.13;;;7.40;99.90;;;;;;5031657;28;20412;-65
2024/01/03 09:19:24;;;;;;;3.10;0.60;;;7.40;99.90;;;;;;5030824;28;20033;-65
2024/01/03 09:21:49;;;;;;;6.78;0.80;;;7.50;99.90;;;;;;5039159;28;20032;-66
2024/01/03 09:24:16;;;;;;;4.80;1.00;;;7.40;99.90;;;;;;5030621;28;20032;-64
2024/01/03 09:26:42;;;;;;;11.40;1.45;;;7.40;99.90;;;;;;5038454;28;20048;-64
2024/01/03 09:29:08;;;;;;;7.65;1.33;;;7.50;99.90;;;;;;5031956;28;20401;-65
2024/01/03 09:31:40;;;;;;;5.35;1.20;;;7.50;99.90;;;;;;5040423;28;20592;-65
2024/01/03 09:34:05;;;;;;;7.07;2.47;;;7.50;99.90;;;;;;5027233;28;20111;-66
2024/01/03 09:36:31;;;;;;;12.13;1.20;;;7.50;99.90;;;;;;5043146;28;20147;-66
2024/01/03 09:38:56;;;;;;;12.98;2.30;;;7.50;99.90;;;;;;5037044;28;20126;-65
2024/01/03 09:41:23;;;;;;;6.95;1.23;;;7.50;99.90;;;;;;5023175;28;20083;-63
2024/01/03 09:43:52;;;;;;;12.02;1.60;;;7.50;99.90;;;;;;5015480;28;20525;-65
2024/01/03 09:46:20;;;;;;;8.23;2.45;;;7.50;99.90;;;;;;5038095;28;20037;-64
2024/01/03 09:48:47;;;;;;;9.32;2.08;;;7.40;99.90;;;;;;5017151;28;20120;-64
2024/01/03 09:51:12;;;;;;;10.40;1.52;;;7.50;99.90;;;;;;5034987;28;20049;-64
2024/01/03 09:53:40;;;;;;;6.75;1.48;;;7.50;99.90;;;;;;5034137;28;20127;-64
2024/01/03 09:56:07;;;;;;;8.23;1.05;;;7.50;99.90;;;;;;5035602;28;20107;-64
2024/01/03 09:58:35;;;;;;;6.53;1.80;;;7.50;99.90;;;;;;5034928;28;20420;-64
2024/01/03 10:01:02;;;;;;;7.47;1.15;;;7.50;99.90;;;;;;5035559;28;20041;-64
2024/01/03 10:03:28;;;;;;;10.27;1.52;;;7.50;99.90;;;;;;5030258;28;20442;-64
2024/01/03 10:06:05;;;;;;;6.82;0.98;;;7.40;99.90;;;;;;5036786;28;20503;-63
2024/01/03 10:08:31;;;;;;;4.60;1.10;;;7.30;99.90;;;;;;5037948;28;20049;-64
2024/01/03 10:10:57;;;;;;;5.93;1.17;;;7.30;99.90;;;;;;5028387;28;20667;-64
2024/01/03 10:13:27;;;;;;;3.95;0.90;;;7.30;99.90;;;;;;5027100;28;20699;-64
2024/01/03 10:15:53;;;;;;;7.50;1.35;;;7.30;99.90;;;;;;5036025;28;20119;-63
2024/01/03 10:18:19;;;;;;;6.22;1.30;;;7.30;99.90;;;;;;5030899;28;20116;-65
2024/01/03 10:20:45;;;;;;;7.28;1.40;;;7.30;99.90;;;;;;5038346;28;20052;-65
2024/01/03 10:23:15;;;;;;;13.05;2.03;;;7.30;99.90;;;;;;5014275;28;20038;-65
2024/01/03 10:25:43;;;;;;;7.88;1.60;;;7.30;99.90;;;;;;5028500;28;20072;-64
2024/01/03 10:28:11;;;;;;;12.63;1.83;;;7.40;99.90;;;;;;5026046;28;20061;-64
2024/01/03 10:30:37;;;;;;;6.13;1.73;;;7.50;99.90;;;;;;5038248;28;20042;-62
2024/01/03 10:33:05;;;;;;;10.02;1.50;;;7.60;99.90;;;;;;5035999;28;20045;-62
2024/01/03 10:35:32;;;;;;;9.50;1.40;;;7.60;99.90;;;;;;5040143;28;20586;-64
2024/01/03 10:37:59;;;;;;;9.20;1.35;;;7.60;99.90;;;;;;5019519;28;20803;-65
2024/01/03 10:40:32;;;;;;;13.52;2.15;;;7.60;99.90;;;;;;5038016;28;20032;-62
2024/01/03 10:42:59;;;;;;;10.45;1.35;;;7.50;99.90;;;;;;5034143;28;20049;-65
2024/01/03 10:45:25;;;;;;;8.65;1.35;;;7.50;99.90;;;;;;5019325;28;20138;-63
2024/01/03 10:47:51;;;;;;;9.55;1.90;;;7.60;99.90;;;;;;5039673;28;20044;-64
2024/01/03 10:50:18;;;;;;;7.93;1.55;;;7.60;99.90;;;;;;5039009;28;20140;-64
2024/01/03 10:52:44;;;;;;;12.68;1.20;;;7.60;99.90;;;;;;5042368;28;20048;-66
2024/01/03 10:55:25;;;;;;;10.85;1.33;;;7.60;99.90;;;;;;5032472;28;20038;-63
2024/01/03 10:57:58;;;;;;;7.72;1.80;;;7.60;99.90;;;;;;5040804;28;20044;-64
2024/01/03 11:00:43;;;;;;;5.72;1.30;;;7.60;99.90;;;;;;5036227;28;20048;-65
2024/01/03 11:03:39;;;;;;;8.30;1.50;;;7.60;99.90;;;;;;5035695;28;20041;-66
2024/01/03 11:06:26;;;;;;;6.43;1.50;;;7.50;99.90;;;;;;5037768;28;20156;-65
2024/01/03 11:08:54;;;;;;;17.50;2.10;;;7.50;99.90;;;;;;5034912;28;20047;-66
2024/01/03 11:11:29;;;;;;;5.72;1.30;;;7.50;99.90;;;;;;5040729;28;20044;-63
2024/01/03 11:13:56;;;;;;;5.65;1.25;;;7.60;99.90;;;;;;5037427;28;20081;-65
2024/01/03 11:16:39;;;;;;;17.73;1.95;;;7.70;99.90;;;;;;5035398;28;20476;-63
2024/01/03 11:19:07;;;;;;;9.45;1.92;;;7.70;99.90;;;;;;5028059;28;20045;-64
2024/01/03 11:21:36;;;;;;;6.40;1.33;;;7.60;99.90;;;;;;5036726;28;20123;-63
2024/01/03 11:24:02;;;;;;;8.07;1.50;;;7.60;99.90;;;;;;5030980;28;20044;-64
2024/01/03 11:26:53;;;;;;;9.55;1.80;;;7.60;99.90;;;;;;5040019;28;20049;-64
2024/01/03 11:29:44;;;;;;;8.70;1.33;;;7.50;99.90;;;;;;5026625;28;20064;-66
2024/01/03 11:32:15;;;;;;;12.27;2.22;;;7.40;99.90;;;;;;5038746;28;20056;-65
2024/01/03 11:34:45;;;;;;;9.57;1.70;;;7.30;99.90;;;;;;4999277;28;20393;-65
2024/01/03 11:37:16;;;;;;;7.35;1.75;;;7.10;99.90;;;;;;5034654;28;20056;-64
2024/01/03 11:39:45;;;;;;;7.93;0.98;;;7.10;99.90;;;;;;5028408;28;20068;-64
2024/01/03 11:42:21;;;;;;;11.05;2.50;;;7.10;99.90;;;;;;5037838;28;20048;-64
2024/01/03 11:45:14;;;;;;;6.20;1.70;;;7.00;99.90;;;;;;5033823;28;20040;-65
2024/01/03 11:47:45;;;;;;;8.38;0.90;;;7.00;99.90;;;;;;5035145;28;20541;-64
2024/01/03 11:50:12;;;;;;;3.70;0.70;;;6.90;99.90;;;;;;5032578;28;20057;-65
2024/01/03 11:52:46;;;;;;;3.25;0.80;;;7.00;99.90;;;;;;5027276;28;20489;-61
2024/01/03 11:55:16;;;;;;;2.45;0.43;;;7.10;99.90;;;;;;5035938;28;20073;-63
2024/01/03 11:57:43;;;;;;;3.38;0.70;;;7.10;99.90;;;;;;4989842;28;20115;-66
2024/01/03 12:00:13;;;;;;;2.75;0.63;;;7.10;99.90;;;;;;5031353;28;20041;-65
2024/01/03 12:02:57;;;;;;;2.58;0.88;;;7.10;99.90;;;;;;5038275;28;20069;-64
2024/01/03 12:05:26;;;;;;;6.70;1.00;;;7.00;99.90;;;;;;5039006;28;20614;-63
2024/01/03 12:07:53;;;;;;;4.10;1.00;;;7.00;99.90;;;;;;5039124;28;20073;-64
2024/01/03 12:10:20;;;;;;;3.92;0.90;;;7.00;99.90;;;;;;5037533;28;20105;-64
2024/01/03 12:12:47;;;;;;;5.40;0.98;;;7.00;99.90;;;;;;5032874;28;20037;-64
2024/01/03 12:15:25;;;;;;;2.72;0.88;;;7.00;99.90;;;;;;5038293;28;20124;-64
2024/01/03 12:17:51;;;;;;;4.85;1.00;;;7.10;99.90;;;;;;5042800;28;20634;-65
2024/01/03 12:20:20;;;;;;;5.28;1.00;;;7.10;99.90;;;;;;5034909;28;20124;-64
2024/01/03 12:22:46;;;;;;;5.93;1.10;;;7.10;99.90;;;;;;5026554;28;20052;-65
2024/01/03 12:25:26;;;;;;;6.55;1.40;;;7.20;99.90;;;;;;5040798;28;20052;-65
2024/01/03 12:27:58;;;;;;;7.90;1.50;;;7.20;99.90;;;;;;5037206;28;20078;-66
2024/01/03 12:30:24;;;;;;;16.35;2.13;;;7.30;99.90;;;;;;5039068;28;20033;-65
2024/01/03 12:32:50;;;;;;;11.25;1.40;;;7.30;99.90;;;;;;5039373;28;20053;-66
2024/01/03 12:35:16;;;;;;;10.00;1.63;;;7.30;99.90;;;;;;5041409;28;20044;-66
2024/01/03 12:37:43;;;;;;;9.90;1.85;;;7.30;99.90;;;;;;5042315;28;20106;-66
2024/01/03 12:40:14;;;;;;;10.43;1.70;;;7.30;99.90;;;;;;5035802;28;20049;-66
2024/01/03 12:42:40;;;;;;;15.88;3.45;;;7.20;99.90;;;;;;5033100;28;20132;-63
2024/01/03 12:45:06;;;;;;;14.20;1.92;;;7.20;99.90;;;;;;5036881;28;20055;-66
2024/01/03 12:47:32;;;;;;;10.88;1.95;;;7.20;99.90;;;;;;5042456;28;20131;-64
2024/01/03 12:49:58;;;;;;;11.82;2.10;;;7.20;99.90;;;;;;5042609;28;20598;-65
2024/01/03 12:52:29;;;;;;;12.75;2.10;;;7.20;99.90;;;;;;5021680;28;20037;-64
2024/01/03 12:54:54;;;;;;;12.93;2.13;;;7.20;99.90;;;;;;5042757;28;20065;-65
2024/01/03 12:57:20;;;;;;;8.55;1.73;;;7.20;99.90;;;;;;5034775;28;20065;-67